Terminal Aerodrome Forecast
Issued by NWS Cleveland, OH

Home | Current Version | Previous Version | Graphics & Text | Print | Product List | Glossary On
Versions: 1 2 3 4 5 6 7 8 9 10 11 12 13 14 15 16 17 18 19 20
812
FTUS41 KCLE 020933 AAA
TAFCAK
TAF AMD
KCAK 020933Z 0210/0306 00000KT P6SM OVC006
     FM021100 33006KT P6SM OVC035
     FM021300 33006KT P6SM OVC005
     FM021800 35007KT P6SM OVC015
     FM030100 02005KT P6SM OVC035=

USA.gov is the U.S. government's official web portal to all federal, state and local government web resources and services.